sensor_id;sensor_type;location;lat;lon;timestamp;pressure;altitude;pressure_sealevel;temperature;humidity
19236;BME280;9752;54.270;12.470;2023-06-14T00:04:23;102732.19;;;11.99;100.00
19236;BME280;9752;54.270;12.470;2023-06-14T00:09:25;102736.88;;;12.03;100.00
19236;BME280;9752;54.270;12.470;2023-06-14T00:14:28;102738.31;;;11.99;100.00
19236;BME280;9752;54.270;12.470;2023-06-14T00:19:30;102725.00;;;11.86;100.00
19236;BME280;9752;54.270;12.470;2023-06-14T00:24:33;102732.16;;;11.88;100.00
19236;BME280;9752;54.270;12.470;2023-06-14T00:29:36;102743.75;;;11.92;100.00
19236;BME280;9752;54.270;12.470;2023-06-14T00:34:38;102742.16;;;11.84;100.00
19236;BME280;9752;54.270;12.470;2023-06-14T00:39:42;102740.44;;;11.74;100.00
19236;BME280;9752;54.270;12.470;2023-06-14T00:44:45;102730.41;;;11.68;100.00
19236;BME280;9752;54.270;12.470;2023-06-14T00:49:47;102740.66;;;11.57;100.00
19236;BME280;9752;54.270;12.470;2023-06-14T00:54:49;102744.28;;;11.19;100.00
19236;BME280;9752;54.270;12.470;2023-06-14T00:59:53;102745.31;;;11.11;100.00
19236;BME280;9752;54.270;12.470;2023-06-14T01:04:55;102765.06;;;10.90;100.00
19236;BME280;9752;54.270;12.470;2023-06-14T01:10:09;102828.41;;;10.73;100.00
19236;BME280;9752;54.270;12.470;2023-06-14T01:15:15;102836.97;;;10.53;100.00
19236;BME280;9752;54.270;12.470;2023-06-14T01:20:21;102848.38;;;10.36;100.00
19236;BME280;9752;54.270;12.470;2023-06-14T01:25:25;102864.84;;;10.28;100.00
19236;BME280;9752;54.270;12.470;2023-06-14T01:30:26;102880.00;;;10.14;100.00
19236;BME280;9752;54.270;12.470;2023-06-14T01:35:28;102922.28;;;10.05;100.00
19236;BME280;9752;54.270;12.470;2023-06-14T01:40:33;102937.84;;;10.13;100.00
19236;BME280;9752;54.270;12.470;2023-06-14T01:45:36;102962.09;;;10.05;100.00
19236;BME280;9752;54.270;12.470;2023-06-14T01:50:39;102990.03;;;9.82;100.00
19236;BME280;9752;54.270;12.470;2023-06-14T01:55:42;103011.56;;;9.72;100.00
19236;BME280;9752;54.270;12.470;2023-06-14T02:00:44;103029.06;;;9.57;100.00
19236;BME280;9752;54.270;12.470;2023-06-14T02:05:47;103062.75;;;9.57;100.00
19236;BME280;9752;54.270;12.470;2023-06-14T02:10:51;103081.34;;;9.53;100.00
19236;BME280;9752;54.270;12.470;2023-06-14T02:15:52;103091.97;;;9.30;100.00
19236;BME280;9752;54.270;12.470;2023-06-14T02:20:56;103122.25;;;9.22;100.00
19236;BME280;9752;54.270;12.470;2023-06-14T02:25:59;103097.06;;;9.12;100.00
19236;BME280;9752;54.270;12.470;2023-06-14T02:31:00;103115.16;;;9.04;100.00
19236;BME280;9752;54.270;12.470;2023-06-14T02:36:02;103132.09;;;9.09;100.00
19236;BME280;9752;54.270;12.470;2023-06-14T02:41:05;103146.25;;;9.04;100.00
19236;BME280;9752;54.270;12.470;2023-06-14T02:46:07;103166.63;;;9.01;100.00
19236;BME280;9752;54.270;12.470;2023-06-14T02:51:09;103181.50;;;8.94;100.00
19236;BME280;9752;54.270;12.470;2023-06-14T02:56:12;103199.81;;;9.05;100.00
19236;BME280;9752;54.270;12.470;2023-06-14T03:01:14;103218.47;;;9.18;100.00
19236;BME280;9752;54.270;12.470;2023-06-14T03:06:18;103246.91;;;9.34;100.00
19236;BME280;9752;54.270;12.470;2023-06-14T03:11:25;103274.34;;;9.41;100.00
19236;BME280;9752;54.270;12.470;2023-06-14T03:16:26;103282.47;;;9.19;100.00
19236;BME280;9752;54.270;12.470;2023-06-14T03:21:30;103299.47;;;9.33;100.00
19236;BME280;9752;54.270;12.470;2023-06-14T03:26:36;103310.44;;;9.30;100.00
19236;BME280;9752;54.270;12.470;2023-06-14T03:31:56;103327.69;;;9.38;100.00
19236;BME280;9752;54.270;12.470;2023-06-14T03:36:58;103353.59;;;9.38;100.00
19236;BME280;9752;54.270;12.470;2023-06-14T03:42:02;103359.00;;;9.49;100.00
19236;BME280;9752;54.270;12.470;2023-06-14T03:47:05;103386.44;;;9.71;100.00
19236;BME280;9752;54.270;12.470;2023-06-14T03:52:07;103413.16;;;10.12;100.00
19236;BME280;9752;54.270;12.470;2023-06-14T03:57:13;103434.66;;;10.36;100.00
19236;BME280;9752;54.270;12.470;2023-06-14T04:02:16;103462.19;;;10.60;100.00
19236;BME280;9752;54.270;12.470;2023-06-14T04:07:18;103471.72;;;10.68;100.00
19236;BME280;9752;54.270;12.470;2023-06-14T04:12:22;103489.31;;;10.88;100.00
19236;BME280;9752;54.270;12.470;2023-06-14T04:17:24;103497.78;;;11.12;100.00
19236;BME280;9752;54.270;12.470;2023-06-14T04:22:27;103514.00;;;11.36;100.00
19236;BME280;9752;54.270;12.470;2023-06-14T04:27:32;103521.19;;;11.64;100.00
19236;BME280;9752;54.270;12.470;2023-06-14T04:32:37;103534.81;;;11.97;100.00
19236;BME280;9752;54.270;12.470;2023-06-14T04:37:41;103536.78;;;12.17;100.00
19236;BME280;9752;54.270;12.470;2023-06-14T04:42:46;103530.72;;;12.53;100.00
19236;BME280;9752;54.270;12.470;2023-06-14T04:47:50;103518.16;;;12.85;100.00
19236;BME280;9752;54.270;12.470;2023-06-14T04:52:57;103475.16;;;12.99;100.00
19236;BME280;9752;54.270;12.470;2023-06-14T04:58:02;103432.06;;;13.21;100.00
19236;BME280;9752;54.270;12.470;2023-06-14T05:03:05;103406.00;;;13.59;100.00
19236;BME280;9752;54.270;12.470;2023-06-14T05:08:07;103356.81;;;13.93;100.00
19236;BME280;9752;54.270;12.470;2023-06-14T05:13:11;103318.50;;;14.43;100.00
19236;BME280;9752;54.270;12.470;2023-06-14T05:18:13;103249.16;;;14.78;100.00
19236;BME280;9752;54.270;12.470;2023-06-14T05:23:15;103169.75;;;14.98;100.00
19236;BME280;9752;54.270;12.470;2023-06-14T05:28:18;103143.34;;;15.27;100.00
19236;BME280;9752;54.270;12.470;2023-06-14T05:33:21;103061.13;;;15.69;100.00
19236;BME280;9752;54.270;12.470;2023-06-14T05:38:22;102973.75;;;16.03;100.00
19236;BME280;9752;54.270;12.470;2023-06-14T05:43:25;102901.66;;;16.45;100.00
19236;BME280;9752;54.270;12.470;2023-06-14T05:48:28;102823.78;;;16.81;100.00
19236;BME280;9752;54.270;12.470;2023-06-14T05:53:29;102692.34;;;17.01;100.00
19236;BME280;9752;54.270;12.470;2023-06-14T05:58:32;102606.22;;;17.35;100.00
19236;BME280;9752;54.270;12.470;2023-06-14T06:03:34;102547.09;;;17.70;100.00
19236;BME280;9752;54.270;12.470;2023-06-14T06:08:36;102467.44;;;17.70;100.00
19236;BME280;9752;54.270;12.470;2023-06-14T06:13:39;102417.25;;;18.10;100.00
19236;BME280;9752;54.270;12.470;2023-06-14T06:18:41;102380.81;;;18.16;100.00
19236;BME280;9752;54.270;12.470;2023-06-14T06:23:42;102328.22;;;18.31;100.00
19236;BME280;9752;54.270;12.470;2023-06-14T06:28:45;102303.88;;;18.51;100.00
19236;BME280;9752;54.270;12.470;2023-06-14T06:33:47;102284.97;;;18.59;100.00
19236;BME280;9752;54.270;12.470;2023-06-14T06:38:49;102282.75;;;18.83;100.00
19236;BME280;9752;54.270;12.470;2023-06-14T06:43:52;102278.91;;;18.94;100.00
19236;BME280;9752;54.270;12.470;2023-06-14T06:48:53;102273.34;;;19.06;100.00
19236;BME280;9752;54.270;12.470;2023-06-14T06:53:56;102270.38;;;19.54;100.00
19236;BME280;9752;54.270;12.470;2023-06-14T06:58:59;102263.44;;;19.56;100.00
19236;BME280;9752;54.270;12.470;2023-06-14T07:04:00;102257.72;;;19.64;100.00
19236;BME280;9752;54.270;12.470;2023-06-14T07:09:03;102253.66;;;19.71;100.00
19236;BME280;9752;54.270;12.470;2023-06-14T07:14:09;102255.47;;;19.72;100.00
19236;BME280;9752;54.270;12.470;2023-06-14T07:19:11;102247.88;;;19.98;100.00
19236;BME280;9752;54.270;12.470;2023-06-14T07:24:13;102236.88;;;20.27;100.00
19236;BME280;9752;54.270;12.470;2023-06-14T07:29:16;102235.06;;;20.05;100.00
19236;BME280;9752;54.270;12.470;2023-06-14T07:34:18;102241.78;;;20.39;100.00
19236;BME280;9752;54.270;12.470;2023-06-14T07:39:20;102246.41;;;20.45;100.00
19236;BME280;9752;54.270;12.470;2023-06-14T07:44:23;102240.56;;;20.72;100.00
19236;BME280;9752;54.270;12.470;2023-06-14T07:49:25;102239.00;;;20.77;100.00
19236;BME280;9752;54.270;12.470;2023-06-14T07:54:27;102239.91;;;20.98;100.00
19236;BME280;9752;54.270;12.470;2023-06-14T07:59:31;102237.94;;;20.94;100.00
19236;BME280;9752;54.270;12.470;2023-06-14T08:04:33;102239.22;;;21.26;100.00
19236;BME280;9752;54.270;12.470;2023-06-14T08:09:35;102236.94;;;21.34;100.00
19236;BME280;9752;54.270;12.470;2023-06-14T08:14:42;102236.81;;;20.66;100.00
19236;BME280;9752;54.270;12.470;2023-06-14T08:19:44;102233.53;;;20.72;100.00
19236;BME280;9752;54.270;12.470;2023-06-14T08:24:46;102233.69;;;20.56;100.00
19236;BME280;9752;54.270;12.470;2023-06-14T08:29:49;102237.09;;;21.16;100.00
19236;BME280;9752;54.270;12.470;2023-06-14T08:34:51;102236.97;;;21.58;100.00
19236;BME280;9752;54.270;12.470;2023-06-14T08:39:53;102246.16;;;21.45;100.00
19236;BME280;9752;54.270;12.470;2023-06-14T08:44:58;102249.56;;;21.20;100.00
19236;BME280;9752;54.270;12.470;2023-06-14T08:49:59;102256.72;;;21.23;100.00
19236;BME280;9752;54.270;12.470;2023-06-14T08:55:01;102263.19;;;20.66;100.00
19236;BME280;9752;54.270;12.470;2023-06-14T09:00:06;102253.53;;;20.88;100.00
19236;BME280;9752;54.270;12.470;2023-06-14T09:05:12;102258.94;;;20.51;100.00
19236;BME280;9752;54.270;12.470;2023-06-14T09:10:15;102256.56;;;20.76;100.00
19236;BME280;9752;54.270;12.470;2023-06-14T09:15:18;102257.97;;;21.10;100.00
19236;BME280;9752;54.270;12.470;2023-06-14T09:20:20;102242.56;;;21.66;100.00
19236;BME280;9752;54.270;12.470;2023-06-14T09:25:22;102244.66;;;21.99;100.00
19236;BME280;9752;54.270;12.470;2023-06-14T09:30:26;102242.78;;;22.20;100.00
19236;BME280;9752;54.270;12.470;2023-06-14T09:35:28;102251.47;;;21.92;100.00
19236;BME280;9752;54.270;12.470;2023-06-14T09:40:34;102245.81;;;21.59;100.00
19236;BME280;9752;54.270;12.470;2023-06-14T09:45:39;102248.69;;;21.65;100.00
19236;BME280;9752;54.270;12.470;2023-06-14T09:50:41;102246.97;;;21.90;97.31
19236;BME280;9752;54.270;12.470;2023-06-14T09:55:43;102242.56;;;21.90;97.50
19236;BME280;9752;54.270;12.470;2023-06-14T10:00:47;102240.22;;;21.98;94.87
19236;BME280;9752;54.270;12.470;2023-06-14T10:05:52;102247.06;;;22.17;94.56
19236;BME280;9752;54.270;12.470;2023-06-14T10:10:55;102240.09;;;22.19;93.23
19236;BME280;9752;54.270;12.470;2023-06-14T10:16:05;102248.66;;;21.88;92.35
19236;BME280;9752;54.270;12.470;2023-06-14T10:21:15;102235.53;;;21.91;91.99
19236;BME280;9752;54.270;12.470;2023-06-14T10:26:21;102232.66;;;22.33;88.17
19236;BME280;9752;54.270;12.470;2023-06-14T10:31:39;102233.28;;;21.77;87.82
19236;BME280;9752;54.270;12.470;2023-06-14T10:36:42;102219.06;;;21.98;86.24
19236;BME280;9752;54.270;12.470;2023-06-14T10:41:52;102225.38;;;21.77;83.30
19236;BME280;9752;54.270;12.470;2023-06-14T10:46:58;102236.41;;;21.90;85.44
19236;BME280;9752;54.270;12.470;2023-06-14T10:52:02;102232.09;;;22.17;80.82
19236;BME280;9752;54.270;12.470;2023-06-14T10:57:07;102226.31;;;22.53;80.32
19236;BME280;9752;54.270;12.470;2023-06-14T11:02:27;102235.69;;;22.19;80.06
19236;BME280;9752;54.270;12.470;2023-06-14T11:07:41;102218.41;;;22.03;80.41
19236;BME280;9752;54.270;12.470;2023-06-14T11:12:50;102219.78;;;22.42;80.93
19236;BME280;9752;54.270;12.470;2023-06-14T11:17:55;102221.31;;;22.35;80.36
19236;BME280;9752;54.270;12.470;2023-06-14T11:22:58;102229.19;;;22.34;80.75
19236;BME280;9752;54.270;12.470;2023-06-14T11:28:00;102216.44;;;22.48;80.78
19236;BME280;9752;54.270;12.470;2023-06-14T11:33:03;102217.88;;;22.14;81.83
19236;BME280;9752;54.270;12.470;2023-06-14T11:38:05;102215.16;;;22.62;84.08
19236;BME280;9752;54.270;12.470;2023-06-14T11:43:07;102224.06;;;22.64;83.47
19236;BME280;9752;54.270;12.470;2023-06-14T11:48:10;102204.66;;;22.64;82.70
19236;BME280;9752;54.270;12.470;2023-06-14T11:53:12;102205.16;;;22.53;80.40
19236;BME280;9752;54.270;12.470;2023-06-14T11:58:14;102213.41;;;22.63;84.19
19236;BME280;9752;54.270;12.470;2023-06-14T12:03:17;102198.19;;;22.55;80.52
19236;BME280;9752;54.270;12.470;2023-06-14T12:08:19;102191.09;;;23.07;81.53
19236;BME280;9752;54.270;12.470;2023-06-14T12:13:21;102172.84;;;23.16;73.86
19236;BME280;9752;54.270;12.470;2023-06-14T12:18:33;102188.09;;;23.25;77.45
19236;BME280;9752;54.270;12.470;2023-06-14T12:23:39;102176.47;;;23.79;73.77
19236;BME280;9752;54.270;12.470;2023-06-14T12:28:41;102182.81;;;23.55;74.08
19236;BME280;9752;54.270;12.470;2023-06-14T12:33:45;102190.41;;;23.14;74.05
19236;BME280;9752;54.270;12.470;2023-06-14T12:38:49;102204.53;;;23.44;80.69
19236;BME280;9752;54.270;12.470;2023-06-14T12:43:53;102175.44;;;23.75;75.89
19236;BME280;9752;54.270;12.470;2023-06-14T12:48:57;102186.34;;;23.86;78.68
19236;BME280;9752;54.270;12.470;2023-06-14T12:53:58;102185.66;;;23.63;78.13
19236;BME280;9752;54.270;12.470;2023-06-14T12:59:00;102187.38;;;23.31;74.50
19236;BME280;9752;54.270;12.470;2023-06-14T13:04:03;102181.53;;;23.43;74.92
19236;BME280;9752;54.270;12.470;2023-06-14T13:09:05;102179.75;;;23.11;72.63
19236;BME280;9752;54.270;12.470;2023-06-14T13:14:08;102184.88;;;23.35;76.84
19236;BME280;9752;54.270;12.470;2023-06-14T13:19:12;102183.34;;;22.86;78.85
19236;BME280;9752;54.270;12.470;2023-06-14T13:24:13;102176.66;;;22.99;81.98
19236;BME280;9752;54.270;12.470;2023-06-14T13:29:15;102176.63;;;23.25;84.21
19236;BME280;9752;54.270;12.470;2023-06-14T13:34:18;102175.91;;;23.30;83.28
19236;BME280;9752;54.270;12.470;2023-06-14T13:39:20;102177.88;;;23.37;85.60
19236;BME280;9752;54.270;12.470;2023-06-14T13:44:22;102175.84;;;23.29;82.39
19236;BME280;9752;54.270;12.470;2023-06-14T13:49:26;102165.06;;;22.95;81.12
19236;BME280;9752;54.270;12.470;2023-06-14T13:54:28;102167.00;;;23.01;82.57
19236;BME280;9752;54.270;12.470;2023-06-14T13:59:30;102172.31;;;23.01;82.31
19236;BME280;9752;54.270;12.470;2023-06-14T14:04:33;102167.00;;;23.01;81.53
19236;BME280;9752;54.270;12.470;2023-06-14T14:09:35;102165.38;;;23.33;81.13
19236;BME280;9752;54.270;12.470;2023-06-14T14:14:37;102149.66;;;24.02;79.30
19236;BME280;9752;54.270;12.470;2023-06-14T14:19:40;102134.84;;;24.80;76.21
19236;BME280;9752;54.270;12.470;2023-06-14T14:24:42;102124.75;;;25.45;74.25
19236;BME280;9752;54.270;12.470;2023-06-14T14:29:43;102131.13;;;25.55;72.36
19236;BME280;9752;54.270;12.470;2023-06-14T14:34:46;102133.41;;;25.81;74.13
19236;BME280;9752;54.270;12.470;2023-06-14T14:39:48;102129.41;;;26.01;71.68
19236;BME280;9752;54.270;12.470;2023-06-14T14:44:50;102105.22;;;26.42;68.52
19236;BME280;9752;54.270;12.470;2023-06-14T14:49:53;102118.34;;;26.30;68.55
19236;BME280;9752;54.270;12.470;2023-06-14T14:54:54;102136.09;;;26.31;70.91
19236;BME280;9752;54.270;12.470;2023-06-14T14:59:56;102137.56;;;26.14;70.12
19236;BME280;9752;54.270;12.470;2023-06-14T15:04:59;102132.53;;;26.30;70.34
19236;BME280;9752;54.270;12.470;2023-06-14T15:10:01;102129.25;;;25.95;68.67
19236;BME280;9752;54.270;12.470;2023-06-14T15:15:03;102108.56;;;27.53;66.41
19236;BME280;9752;54.270;12.470;2023-06-14T15:20:08;102148.13;;;26.61;70.12
19236;BME280;9752;54.270;12.470;2023-06-14T15:25:10;102118.59;;;27.05;66.99
19236;BME280;9752;54.270;12.470;2023-06-14T15:30:12;102110.56;;;26.42;64.73
19236;BME280;9752;54.270;12.470;2023-06-14T15:35:16;102112.53;;;27.17;66.49
19236;BME280;9752;54.270;12.470;2023-06-14T15:40:19;102114.47;;;27.27;65.91
19236;BME280;9752;54.270;12.470;2023-06-14T15:45:20;102112.56;;;27.96;67.17
19236;BME280;9752;54.270;12.470;2023-06-14T15:50:24;102088.00;;;28.39;63.19
19236;BME280;9752;54.270;12.470;2023-06-14T15:55:26;102076.78;;;28.92;60.78
19236;BME280;9752;54.270;12.470;2023-06-14T16:00:27;102070.56;;;28.99;58.76
19236;BME280;9752;54.270;12.470;2023-06-14T16:05:30;102085.63;;;28.80;59.19
19236;BME280;9752;54.270;12.470;2023-06-14T16:10:32;102077.06;;;28.03;57.50
19236;BME280;9752;54.270;12.470;2023-06-14T16:15:34;102108.16;;;27.23;60.86
19236;BME280;9752;54.270;12.470;2023-06-14T16:20:37;102091.47;;;27.37;58.94
19236;BME280;9752;54.270;12.470;2023-06-14T16:25:38;102085.97;;;28.06;57.44
19236;BME280;9752;54.270;12.470;2023-06-14T16:30:40;102093.56;;;27.65;57.29
19236;BME280;9752;54.270;12.470;2023-06-14T16:35:43;102108.22;;;28.06;59.49
19236;BME280;9752;54.270;12.470;2023-06-14T16:40:45;102067.22;;;29.54;56.27
19236;BME280;9752;54.270;12.470;2023-06-14T16:45:46;102076.81;;;29.06;55.28
19236;BME280;9752;54.270;12.470;2023-06-14T16:50:50;102095.84;;;28.16;56.36
19236;BME280;9752;54.270;12.470;2023-06-14T16:55:51;102126.19;;;27.43;58.89
19236;BME280;9752;54.270;12.470;2023-06-14T17:00:53;102100.94;;;27.90;56.57
19236;BME280;9752;54.270;12.470;2023-06-14T17:05:57;102112.41;;;27.82;57.95
19236;BME280;9752;54.270;12.470;2023-06-14T17:10:59;102167.72;;;25.68;63.14
19236;BME280;9752;54.270;12.470;2023-06-14T17:16:01;102182.19;;;23.94;72.33
19236;BME280;9752;54.270;12.470;2023-06-14T17:21:04;102176.63;;;23.85;76.51
19236;BME280;9752;54.270;12.470;2023-06-14T17:26:06;102156.19;;;24.49;75.94
19236;BME280;9752;54.270;12.470;2023-06-14T17:31:07;102150.13;;;25.29;74.26
19236;BME280;9752;54.270;12.470;2023-06-14T17:36:10;102144.22;;;25.46;72.36
19236;BME280;9752;54.270;12.470;2023-06-14T17:41:12;102127.84;;;26.69;70.31
19236;BME280;9752;54.270;12.470;2023-06-14T17:46:14;102122.25;;;27.15;68.90
19236;BME280;9752;54.270;12.470;2023-06-14T17:51:18;102167.72;;;24.15;75.15
19236;BME280;9752;54.270;12.470;2023-06-14T17:56:20;102141.34;;;25.79;79.25
19236;BME280;9752;54.270;12.470;2023-06-14T18:01:22;102125.69;;;26.45;75.23
19236;BME280;9752;54.270;12.470;2023-06-14T18:06:25;102139.81;;;26.42;77.65
19236;BME280;9752;54.270;12.470;2023-06-14T18:11:27;102149.31;;;26.26;78.20
19236;BME280;9752;54.270;12.470;2023-06-14T18:16:30;102152.19;;;25.46;81.25
19236;BME280;9752;54.270;12.470;2023-06-14T18:21:33;102177.44;;;23.52;91.15
19236;BME280;9752;54.270;12.470;2023-06-14T18:26:36;102161.41;;;24.46;92.78
19236;BME280;9752;54.270;12.470;2023-06-14T18:31:37;102157.66;;;24.73;89.86
19236;BME280;9752;54.270;12.470;2023-06-14T18:36:40;102156.41;;;24.95;91.77
19236;BME280;9752;54.270;12.470;2023-06-14T18:41:42;102152.09;;;24.61;92.36
19236;BME280;9752;54.270;12.470;2023-06-14T18:46:44;102163.91;;;23.75;93.59
19236;BME280;9752;54.270;12.470;2023-06-14T18:51:47;102165.13;;;22.97;98.39
19236;BME280;9752;54.270;12.470;2023-06-14T18:56:48;102164.94;;;22.36;100.00
19236;BME280;9752;54.270;12.470;2023-06-14T19:01:50;102161.81;;;21.26;100.00
19236;BME280;9752;54.270;12.470;2023-06-14T19:06:53;102170.06;;;18.72;100.00
19236;BME280;9752;54.270;12.470;2023-06-14T19:11:55;102164.03;;;17.39;100.00
19236;BME280;9752;54.270;12.470;2023-06-14T19:16:56;102153.84;;;16.66;100.00
19236;BME280;9752;54.270;12.470;2023-06-14T19:21:59;102148.53;;;16.20;100.00
19236;BME280;9752;54.270;12.470;2023-06-14T19:27:01;102148.72;;;15.65;100.00
19236;BME280;9752;54.270;12.470;2023-06-14T19:32:04;102145.69;;;15.16;100.00
19236;BME280;9752;54.270;12.470;2023-06-14T19:37:07;102152.25;;;14.69;100.00
19236;BME280;9752;54.270;12.470;2023-06-14T19:42:09;102155.59;;;14.28;100.00
19236;BME280;9752;54.270;12.470;2023-06-14T19:47:11;102154.38;;;13.96;100.00
19236;BME280;9752;54.270;12.470;2023-06-14T19:52:14;102163.41;;;13.76;100.00
19236;BME280;9752;54.270;12.470;2023-06-14T19:57:16;102161.88;;;13.66;100.00
19236;BME280;9752;54.270;12.470;2023-06-14T20:02:18;102172.06;;;13.38;100.00
19236;BME280;9752;54.270;12.470;2023-06-14T20:07:21;102180.94;;;13.17;100.00
19236;BME280;9752;54.270;12.470;2023-06-14T20:12:24;102189.88;;;13.08;100.00
19236;BME280;9752;54.270;12.470;2023-06-14T20:17:25;102189.56;;;12.92;100.00
19236;BME280;9752;54.270;12.470;2023-06-14T20:22:28;102201.22;;;12.85;100.00
19236;BME280;9752;54.270;12.470;2023-06-14T20:27:37;102206.31;;;12.72;100.00
19236;BME280;9752;54.270;12.470;2023-06-14T20:32:39;102209.38;;;12.66;100.00
19236;BME280;9752;54.270;12.470;2023-06-14T20:37:42;102206.44;;;12.62;100.00
19236;BME280;9752;54.270;12.470;2023-06-14T20:42:44;102214.59;;;12.55;100.00
19236;BME280;9752;54.270;12.470;2023-06-14T20:47:46;102216.72;;;12.48;100.00
19236;BME280;9752;54.270;12.470;2023-06-14T20:52:49;102216.59;;;12.35;100.00
19236;BME280;9752;54.270;12.470;2023-06-14T20:57:51;102216.75;;;12.15;100.00
19236;BME280;9752;54.270;12.470;2023-06-14T21:02:53;102241.25;;;12.06;100.00
19236;BME280;9752;54.270;12.470;2023-06-14T21:07:58;102245.53;;;11.94;100.00
19236;BME280;9752;54.270;12.470;2023-06-14T21:13:00;102244.78;;;11.85;100.00
19236;BME280;9752;54.270;12.470;2023-06-14T21:18:02;102252.94;;;11.67;100.00
19236;BME280;9752;54.270;12.470;2023-06-14T21:23:05;102262.41;;;11.45;100.00
19236;BME280;9752;54.270;12.470;2023-06-14T21:28:07;102278.06;;;11.35;100.00
19236;BME280;9752;54.270;12.470;2023-06-14T21:33:09;102290.78;;;11.31;100.00
19236;BME280;9752;54.270;12.470;2023-06-14T21:38:12;102298.50;;;11.09;100.00
19236;BME280;9752;54.270;12.470;2023-06-14T21:43:15;102298.44;;;10.87;100.00
19236;BME280;9752;54.270;12.470;2023-06-14T21:48:17;102302.97;;;10.90;100.00
19236;BME280;9752;54.270;12.470;2023-06-14T21:53:20;102329.44;;;11.06;100.00
19236;BME280;9752;54.270;12.470;2023-06-14T21:58:22;102343.81;;;11.23;100.00
19236;BME280;9752;54.270;12.470;2023-06-14T22:03:23;102356.78;;;11.23;100.00
19236;BME280;9752;54.270;12.470;2023-06-14T22:08:27;102360.81;;;11.09;100.00
19236;BME280;9752;54.270;12.470;2023-06-14T22:13:31;102366.16;;;10.90;100.00
19236;BME280;9752;54.270;12.470;2023-06-14T22:18:34;102374.88;;;10.70;100.00
19236;BME280;9752;54.270;12.470;2023-06-14T22:23:37;102374.84;;;10.50;100.00
19236;BME280;9752;54.270;12.470;2023-06-14T22:28:39;102375.53;;;10.18;100.00
19236;BME280;9752;54.270;12.470;2023-06-14T22:33:43;102384.28;;;10.00;100.00
19236;BME280;9752;54.270;12.470;2023-06-14T22:38:47;102400.56;;;9.88;100.00
19236;BME280;9752;54.270;12.470;2023-06-14T22:43:49;102420.50;;;10.08;100.00
19236;BME280;9752;54.270;12.470;2023-06-14T22:48:52;102431.22;;;10.03;100.00
19236;BME280;9752;54.270;12.470;2023-06-14T22:53:55;102447.22;;;9.88;100.00
19236;BME280;9752;54.270;12.470;2023-06-14T22:58:56;102452.44;;;9.69;100.00
19236;BME280;9752;54.270;12.470;2023-06-14T23:04:02;102464.97;;;9.84;100.00
19236;BME280;9752;54.270;12.470;2023-06-14T23:09:05;102480.88;;;9.59;100.00
19236;BME280;9752;54.270;12.470;2023-06-14T23:14:08;102478.34;;;9.50;100.00
19236;BME280;9752;54.270;12.470;2023-06-14T23:19:10;102512.47;;;9.55;100.00
19236;BME280;9752;54.270;12.470;2023-06-14T23:24:15;102646.59;;;9.76;100.00
19236;BME280;9752;54.270;12.470;2023-06-14T23:29:19;102682.06;;;9.58;100.00
19236;BME280;9752;54.270;12.470;2023-06-14T23:34:23;102690.22;;;9.72;100.00
19236;BME280;9752;54.270;12.470;2023-06-14T23:39:27;102722.56;;;9.94;100.00
19236;BME280;9752;54.270;12.470;2023-06-14T23:44:29;102733.38;;;9.71;100.00
19236;BME280;9752;54.270;12.470;2023-06-14T23:49:37;102736.84;;;10.00;100.00
19236;BME280;9752;54.270;12.470;2023-06-14T23:54:40;102716.81;;;9.52;100.00
19236;BME280;9752;54.270;12.470;2023-06-14T23:59:46;102706.69;;;9.27;100.00
